Time;durP1;ratioP1;P1;durP2;ratioP2;P2;SDS_P1;SDS_P2;PMS_P1;PMS_P2;Temp;Humidity;BMP_temperature;BMP_pressure;BME280_temperature;BME280_humidity;BME280_pressure;Samples;Min_cycle;Max_cycle;Signal;HPM_P1;HPM_P2
2022/01/02 00:00:18;;;;;;;13.65;10.77;;;;;;;8.20;74.79;96187.00;4991757;28;20156;-77
2022/01/02 00:02:49;;;;;;;13.50;10.52;;;;;;;8.26;74.91;96194.44;5007769;28;20033;-76
2022/01/02 00:05:15;;;;;;;17.70;11.25;;;;;;;8.31;75.00;96192.19;5008110;28;20029;-77
2022/01/02 00:08:03;;;;;;;15.43;11.60;;;;;;;8.33;74.75;96197.38;5025264;28;20104;-77
2022/01/02 00:10:56;;;;;;;15.35;11.23;;;;;;;8.32;74.81;96206.41;5007949;28;20042;-75
2022/01/02 00:13:28;;;;;;;;;;;;;;;8.34;74.93;96204.41;5011122;28;20105;-79
2022/01/02 00:15:56;;;;;;;13.55;10.02;;;;;;;8.32;74.75;96211.75;5028679;28;19920;-78
2022/01/02 00:18:21;;;;;;;15.55;11.02;;;;;;;8.34;74.77;96204.41;4995474;28;20025;-77
2022/01/02 00:20:48;;;;;;;12.75;10.27;;;;;;;8.39;74.48;96205.69;4978524;28;20033;-77
2022/01/02 00:23:23;;;;;;;15.52;11.05;;;;;;;8.36;74.70;96197.94;4995891;28;20029;-79
2022/01/02 00:25:53;;;;;;;16.33;12.20;;;;;;;8.46;74.75;96194.41;5012804;28;20048;-77
2022/01/02 00:28:18;;;;;;;15.93;11.90;;;;;;;8.46;74.67;96189.91;5011672;28;20029;-77
2022/01/02 00:30:44;;;;;;;15.23;10.65;;;;;;;8.50;74.53;96193.97;5029098;28;20087;-77
2022/01/02 00:33:09;;;;;;;15.52;12.13;;;;;;;8.32;75.26;96193.84;5010676;28;20057;-79
2022/01/02 00:35:36;;;;;;;15.20;11.80;;;;;;;8.40;75.12;96190.47;5029270;28;20037;-77
2022/01/02 00:38:01;;;;;;;15.02;10.90;;;;;;;8.51;74.41;96189.47;4994170;28;20030;-77
2022/01/02 00:40:26;;;;;;;17.20;11.93;;;;;;;8.52;74.68;96200.00;5029206;28;20385;-78
2022/01/02 00:42:55;;;;;;;18.67;11.70;;;;;;;8.53;74.49;96196.34;4994737;28;20021;-78
2022/01/02 00:45:27;;;;;;;15.18;11.43;;;;;;;8.57;74.71;96193.41;4995015;28;20030;-77
2022/01/02 00:48:15;;;;;;;16.40;11.25;;;;;;;8.60;74.67;96199.31;5029590;28;20018;-78
2022/01/02 00:50:49;;;;;;;15.05;11.57;;;;;;;8.61;74.61;96190.28;5018806;28;20095;-77
2022/01/02 00:53:17;;;;;;;14.57;10.90;;;;;;;8.60;74.52;96187.75;5011985;28;20029;-78
2022/01/02 00:55:43;;;;;;;16.88;11.70;;;;;;;8.59;74.66;96188.75;5028539;28;20033;-77
2022/01/02 00:58:17;;;;;;;15.18;11.07;;;;;;;8.65;74.62;96199.72;4994247;28;20342;-77
2022/01/02 01:00:48;;;;;;;14.30;11.45;;;;;;;8.61;74.64;96194.81;5010809;28;20026;-76
2022/01/02 01:03:23;;;;;;;14.05;10.48;;;;;;;8.63;74.06;96200.84;5027555;28;20342;-76
2022/01/02 01:05:48;;;;;;;16.02;11.05;;;;;;;8.70;74.08;96209.13;5028346;28;20032;-76
2022/01/02 01:08:13;;;;;;;17.25;11.60;;;;;;;8.66;74.26;96197.88;4993385;28;20026;-77
2022/01/02 01:10:40;;;;;;;16.30;12.18;;;;;;;8.61;74.61;96195.66;5028217;28;20053;-80
2022/01/02 01:13:07;;;;;;;15.88;10.63;;;;;;;8.64;74.20;96200.69;5010376;28;20056;-77
2022/01/02 01:15:33;;;;;;;15.43;12.13;;;;;;;8.64;74.53;96199.88;5028322;28;20113;-79
2022/01/02 01:18:00;;;;;;;15.63;11.75;;;;;;;8.63;74.35;96211.53;5028055;28;20030;-77
2022/01/02 01:20:27;;;;;;;16.33;12.00;;;;;;;8.55;74.46;96206.06;5009894;28;20050;-77
2022/01/02 01:22:52;;;;;;;17.48;11.75;;;;;;;8.56;74.71;96210.44;5010273;28;20036;-77
2022/01/02 01:25:19;;;;;;;14.32;10.88;;;;;;;8.50;74.66;96201.97;5009471;28;20021;-77
2022/01/02 01:27:45;;;;;;;13.73;10.50;;;;;;;8.57;74.54;96210.31;5027986;28;20472;-77
2022/01/02 01:30:10;;;;;;;15.63;10.98;;;;;;;8.65;74.09;96206.91;5009810;28;20029;-77
2022/01/02 01:32:36;;;;;;;13.93;10.93;;;;;;;8.64;74.19;96210.56;5027412;28;20116;-76
2022/01/02 01:35:02;;;;;;;13.80;10.82;;;;;;;8.59;74.54;96197.59;5027635;28;20531;-77
2022/01/02 01:37:28;;;;;;;17.25;11.52;;;;;;;8.50;74.55;96195.78;5027301;28;20025;-77
2022/01/02 01:39:54;;;;;;;14.20;11.25;;;;;;;8.53;74.64;96193.66;5027493;28;20079;-77
2022/01/02 01:42:29;;;;;;;13.77;11.07;;;;;;;8.57;74.60;96196.09;5026802;28;20029;-77
2022/01/02 01:47:38;;;;;;;15.35;10.68;;;;;;;8.49;74.55;96199.44;5012059;28;20036;-77
2022/01/02 01:50:04;;;;;;;16.63;11.93;;;;;;;8.49;74.50;96202.13;5027523;28;20026;-75
2022/01/02 01:52:29;;;;;;;15.18;11.32;;;;;;;8.38;75.41;96201.28;5027162;28;20040;-77
2022/01/02 01:54:55;;;;;;;15.25;11.85;;;;;;;8.47;74.78;96202.28;5027407;28;20033;-77
2022/01/02 01:57:20;;;;;;;15.20;11.15;;;;;;;8.44;74.94;96196.38;5010024;28;20500;-75
2022/01/02 01:59:47;;;;;;;19.08;11.80;;;;;;;8.41;75.09;96202.84;5009514;28;20036;-77
2022/01/02 02:02:13;;;;;;;14.98;11.50;;;;;;;8.47;74.57;96204.94;5009689;28;20456;-77
2022/01/02 02:04:39;;;;;;;14.27;11.93;;;;;;;8.48;74.88;96201.28;5009190;28;20037;-77
2022/01/02 02:07:04;;;;;;;15.30;11.85;;;;;;;8.49;75.13;96197.63;5027753;28;20033;-78
2022/01/02 02:09:41;;;;;;;16.25;11.48;;;;;;;8.56;74.50;96199.75;5026614;28;20488;-78
2022/01/02 02:12:06;;;;;;;17.20;12.48;;;;;;;8.60;74.33;96201.13;5027208;28;20033;-75
2022/01/02 02:14:33;;;;;;;16.60;11.57;;;;;;;8.56;74.79;96195.22;5009242;28;20037;-77
2022/01/02 02:16:58;;;;;;;15.43;11.98;;;;;;;8.56;74.91;96200.56;5009582;28;20029;-77
2022/01/02 02:19:24;;;;;;;16.90;11.75;;;;;;;8.58;74.64;96200.44;5009754;28;20052;-77
2022/01/02 02:21:49;;;;;;;14.98;11.80;;;;;;;8.60;74.37;96206.47;5026507;28;20159;-77
2022/01/02 02:24:14;;;;;;;14.77;11.68;;;;;;;8.64;74.23;96203.38;5009514;28;20030;-77
2022/01/02 02:26:40;;;;;;;16.73;12.43;;;;;;;8.66;74.55;96203.22;5026555;28;20681;-79
2022/01/02 02:29:05;;;;;;;16.58;12.65;;;;;;;8.63;74.50;96204.38;5027004;28;20535;-76
2022/01/02 02:31:31;;;;;;;15.27;11.70;;;;;;;8.67;74.29;96209.44;5009303;28;20557;-77
2022/01/02 02:33:56;;;;;;;16.45;11.65;;;;;;;8.67;74.00;96212.09;5026768;28;20100;-78
2022/01/02 02:36:22;;;;;;;16.98;11.88;;;;;;;8.70;74.02;96207.31;5026453;28;20055;-77
2022/01/02 02:38:47;;;;;;;15.15;12.15;;;;;;;8.71;73.85;96211.66;5008644;28;20025;-76
2022/01/02 02:41:13;;;;;;;16.45;11.63;;;;;;;8.72;74.29;96210.66;5026950;28;20555;-76
2022/01/02 02:43:55;;;;;;;16.55;12.15;;;;;;;8.80;73.40;96214.44;5008456;28;20030;-78
2022/01/02 02:49:05;;;;;;;17.00;13.00;;;;;;;8.68;73.80;96211.94;5027339;28;20040;-76
2022/01/02 02:51:50;;;;;;;15.00;11.15;;;;;;;8.72;73.65;96210.66;5026673;28;20518;-78
2022/01/02 02:54:19;;;;;;;14.25;10.57;;;;;;;8.78;73.74;96215.44;5026959;28;20472;-76
2022/01/02 02:56:55;;;;;;;16.33;11.05;;;;;;;8.76;74.10;96221.91;5008327;28;20025;-77
2022/01/02 02:59:21;;;;;;;16.08;10.85;;;;;;;8.68;73.82;96219.97;5010948;28;20112;-76
2022/01/02 03:01:47;;;;;;;14.70;10.93;;;;;;;8.77;73.47;96215.56;5008688;28;20025;-77
2022/01/02 03:04:12;;;;;;;13.73;10.70;;;;;;;8.74;74.04;96227.41;4993091;28;20378;-80
2022/01/02 03:06:38;;;;;;;14.43;11.50;;;;;;;8.68;74.24;96227.16;5026702;28;20515;-75
2022/01/02 03:09:08;;;;;;;14.55;11.05;;;;;;;8.64;74.43;96231.97;5025940;28;20029;-77
2022/01/02 03:11:35;;;;;;;15.38;11.15;;;;;;;8.62;74.34;96233.94;5026578;28;20100;-78
2022/01/02 03:14:00;;;;;;;18.63;12.43;;;;;;;8.60;74.09;96222.53;5025826;28;20029;-77
2022/01/02 03:16:26;;;;;;;15.13;11.07;;;;;;;8.65;74.01;96226.47;5008801;28;20084;-77
2022/01/02 03:18:51;;;;;;;14.77;10.73;;;;;;;8.70;74.00;96225.19;5008044;28;20036;-75
2022/01/02 03:21:17;;;;;;;15.48;11.00;;;;;;;8.71;73.68;96225.03;5026928;28;20032;-77
2022/01/02 03:23:42;;;;;;;13.65;10.40;;;;;;;8.64;74.15;96224.75;5026262;28;20030;-77
2022/01/02 03:26:08;;;;;;;14.07;9.98;;;;;;;8.72;73.83;96228.56;5026645;28;20025;-77
2022/01/02 03:28:33;;;;;;;14.75;10.52;;;;;;;8.75;73.85;96228.28;5008973;28;20501;-77
2022/01/02 03:30:59;;;;;;;16.50;10.45;;;;;;;8.80;73.68;96226.00;5007933;28;20033;-76
2022/01/02 03:33:24;;;;;;;14.23;10.63;;;;;;;8.78;73.38;96228.81;5026418;28;20033;-76
2022/01/02 03:35:49;;;;;;;14.65;10.65;;;;;;;8.78;73.50;96218.13;5025695;28;20029;-78
2022/01/02 03:38:15;;;;;;;16.25;11.57;;;;;;;8.56;74.59;96224.63;5026281;28;20485;-77
2022/01/02 03:40:41;;;;;;;17.02;12.05;;;;;;;8.58;74.35;96229.84;4991995;28;20026;-78
2022/01/02 03:43:06;;;;;;;15.68;11.30;;;;;;;8.53;74.71;96231.09;5026492;28;20030;-77
2022/01/02 03:45:32;;;;;;;14.32;10.82;;;;;;;8.59;74.63;96220.84;5008492;28;20375;-77
2022/01/02 03:47:57;;;;;;;16.60;11.48;;;;;;;8.51;74.76;96230.41;5009810;28;20029;-77
2022/01/02 03:50:22;;;;;;;15.07;11.60;;;;;;;8.55;74.75;96224.78;5012804;28;20022;-77
2022/01/02 03:52:48;;;;;;;14.60;11.65;;;;;;;8.56;75.11;96216.63;5012391;28;20026;-77
2022/01/02 03:55:13;;;;;;;15.40;11.68;;;;;;;8.55;74.84;96217.63;5011856;28;20416;-77
2022/01/02 03:57:39;;;;;;;13.23;11.23;;;;;;;8.61;74.64;96216.22;4995572;28;20041;-77
2022/01/02 04:00:06;;;;;;;15.80;11.05;;;;;;;8.65;74.73;96228.28;5012052;28;20052;-78
2022/01/02 04:02:32;;;;;;;15.02;11.48;;;;;;;8.45;75.06;96228.31;5011773;28;20502;-77
2022/01/02 04:04:57;;;;;;;14.30;11.02;;;;;;;8.54;75.01;96234.63;5029878;28;20025;-78
2022/01/02 04:07:23;;;;;;;15.30;11.32;;;;;;;8.60;74.42;96238.56;5029596;28;20025;-78
2022/01/02 04:09:50;;;;;;;14.98;11.10;;;;;;;8.53;74.80;96241.78;5029243;28;20048;-76
2022/01/02 04:12:16;;;;;;;14.77;11.25;;;;;;;8.58;74.63;96244.06;5029430;28;20487;-76
2022/01/02 04:14:41;;;;;;;15.50;11.48;;;;;;;8.62;74.28;96249.97;5011217;28;20511;-77
2022/01/02 04:17:07;;;;;;;15.93;10.75;;;;;;;8.66;74.66;96254.03;5011468;28;20472;-78
2022/01/02 04:19:32;;;;;;;15.88;11.18;;;;;;;8.58;74.90;96253.91;5029032;28;20033;-77
2022/01/02 04:21:58;;;;;;;14.88;11.05;;;;;;;8.62;74.40;96255.31;5029655;28;20025;-78
2022/01/02 04:24:23;;;;;;;13.88;10.50;;;;;;;8.63;74.65;96262.34;5029348;28;20025;-76
2022/01/02 04:26:48;;;;;;;14.93;10.90;;;;;;;8.49;74.84;96256.44;5011332;28;20042;-76
2022/01/02 04:29:14;;;;;;;13.48;10.68;;;;;;;8.51;74.68;96261.66;5011030;28;20029;-78
2022/01/02 04:31:39;;;;;;;15.80;11.80;;;;;;;8.40;75.21;96252.78;5029264;28;20025;-76
2022/01/02 04:34:05;;;;;;;13.38;11.32;;;;;;;8.41;75.10;96259.81;5029517;28;20025;-78
2022/01/02 04:36:30;;;;;;;14.63;11.30;;;;;;;8.43;74.83;96254.31;5028658;28;20036;-77
2022/01/02 04:38:55;;;;;;;16.10;12.38;;;;;;;8.30;75.42;96241.28;5011610;28;20017;-76
2022/01/02 04:41:21;;;;;;;15.05;10.90;;;;;;;8.38;75.02;96248.59;5028356;28;20026;-78
2022/01/02 04:43:46;;;;;;;14.00;11.20;;;;;;;8.38;75.02;96248.59;5011555;28;20022;-76
2022/01/02 04:46:13;;;;;;;15.55;10.93;;;;;;;8.32;75.12;96254.50;5028642;28;20091;-77
2022/01/02 04:48:38;;;;;;;15.77;11.70;;;;;;;8.35;74.75;96248.88;5011539;28;20488;-75
2022/01/02 04:51:04;;;;;;;13.35;9.90;;;;;;;8.35;75.27;96256.91;5028820;28;20037;-76
2022/01/02 04:53:30;;;;;;;14.43;10.55;;;;;;;8.40;74.85;96250.13;5028505;28;20316;-79
2022/01/02 04:55:56;;;;;;;14.20;10.80;;;;;;;8.30;75.11;96262.66;5028403;28;20503;-77
2022/01/02 04:58:21;;;;;;;15.10;11.70;;;;;;;8.37;74.69;96266.44;5027922;28;20026;-77
2022/01/02 05:00:46;;;;;;;16.10;11.07;;;;;;;8.32;74.84;96258.00;5011387;28;20032;-77
2022/01/02 05:03:12;;;;;;;15.60;11.32;;;;;;;8.25;75.48;96254.22;5010341;28;20029;-76
2022/01/02 05:05:37;;;;;;;13.98;11.10;;;;;;;8.28;74.68;96260.13;5029371;28;20025;-77
2022/01/02 05:08:03;;;;;;;15.32;10.95;;;;;;;8.28;74.55;96252.13;5028819;28;20033;-77
2022/01/02 05:10:28;;;;;;;13.50;10.50;;;;;;;8.25;74.91;96249.69;5010990;28;20037;-76
2022/01/02 05:12:54;;;;;;;14.77;10.68;;;;;;;8.18;75.21;96251.28;5010684;28;20038;-77
2022/01/02 05:15:19;;;;;;;14.20;11.13;;;;;;;8.23;75.04;96256.19;5028224;28;20033;-77
2022/01/02 05:17:45;;;;;;;15.35;11.40;;;;;;;8.16;75.18;96256.75;5028776;28;20029;-76
2022/01/02 05:20:10;;;;;;;14.10;9.90;;;;;;;8.15;75.25;96259.56;5011000;28;20037;-76
2022/01/02 05:22:36;;;;;;;14.82;11.00;;;;;;;8.14;74.96;96264.06;5028798;28;20498;-76
2022/01/02 05:25:01;;;;;;;16.00;11.40;;;;;;;8.19;74.88;96270.84;4994187;28;20101;-76
2022/01/02 05:27:26;;;;;;;16.27;11.90;;;;;;;8.19;75.06;96268.97;5010631;28;20480;-76
2022/01/02 05:29:52;;;;;;;15.13;10.85;;;;;;;8.22;74.76;96266.03;4994376;28;20021;-76
2022/01/02 05:32:17;;;;;;;14.10;10.00;;;;;;;8.22;74.52;96268.69;5010669;28;20032;-79
2022/01/02 05:34:43;;;;;;;14.52;10.27;;;;;;;8.12;74.84;96267.88;5028051;28;20037;-78
2022/01/02 05:37:08;;;;;;;12.90;10.10;;;;;;;8.16;74.91;96271.94;5027959;28;20022;-77
2022/01/02 05:39:33;;;;;;;12.55;10.07;;;;;;;8.14;74.79;96271.25;5028006;28;20045;-76
2022/01/02 05:41:59;;;;;;;11.75;9.07;;;;;;;8.12;74.89;96275.88;5027550;28;20412;-78
2022/01/02 05:44:24;;;;;;;15.60;10.18;;;;;;;8.09;75.19;96271.69;5028173;28;20022;-76
2022/01/02 05:46:50;;;;;;;13.07;9.43;;;;;;;8.11;75.01;96275.03;5027949;28;20064;-77
2022/01/02 05:49:15;;;;;;;11.40;9.52;;;;;;;8.12;75.01;96275.88;5010475;28;20412;-77
2022/01/02 05:51:41;;;;;;;11.75;9.73;;;;;;;8.07;75.01;96278.13;4993413;28;20017;-77
2022/01/02 05:54:06;;;;;;;11.20;8.95;;;;;;;8.09;74.79;96279.69;5028003;28;20040;-77
2022/01/02 05:56:32;;;;;;;13.98;9.63;;;;;;;8.10;74.36;96278.69;5027473;28;20496;-76
2022/01/02 05:58:57;;;;;;;13.40;10.02;;;;;;;8.10;74.41;96278.69;5027528;28;20022;-76
2022/01/02 06:01:23;;;;;;;13.68;10.30;;;;;;;8.08;74.65;96286.00;5027881;28;20088;-77
2022/01/02 06:03:48;;;;;;;17.63;11.38;;;;;;;8.11;74.17;96285.72;5026952;28;20121;-77
2022/01/02 06:06:14;;;;;;;15.45;10.75;;;;;;;8.03;74.82;96283.75;5027806;28;20029;-77
2022/01/02 06:08:40;;;;;;;14.27;10.63;;;;;;;8.00;74.84;96288.53;5027030;28;20440;-78
2022/01/02 06:11:05;;;;;;;14.50;9.85;;;;;;;8.08;74.31;96291.34;5027031;28;20045;-77
2022/01/02 06:13:31;;;;;;;14.73;9.50;;;;;;;8.08;74.85;96290.50;5009303;28;20029;-75
2022/01/02 06:15:56;;;;;;;11.10;8.35;;;;;;;8.09;74.78;96289.53;5027314;28;20037;-76
2022/01/02 06:18:21;;;;;;;13.95;9.27;;;;;;;8.08;74.59;96294.03;5027017;28;20029;-79
2022/01/02 06:20:47;;;;;;;10.63;8.63;;;;;;;8.10;74.43;96289.38;5009258;28;20013;-77
2022/01/02 06:23:12;;;;;;;10.93;8.13;;;;;;;8.14;74.13;96293.47;5027040;28;20045;-78
2022/01/02 06:25:38;;;;;;;12.00;9.05;;;;;;;8.21;73.74;96301.75;5026915;28;20472;-80
2022/01/02 06:28:03;;;;;;;11.05;8.77;;;;;;;8.24;73.65;96316.66;5027550;28;20037;-78
2022/01/02 06:30:29;;;;;;;11.40;8.68;;;;;;;8.24;73.91;96317.50;5027075;28;20029;-77
2022/01/02 06:32:55;;;;;;;11.77;8.75;;;;;;;8.32;73.55;96314.13;5010360;28;20033;-79
2022/01/02 06:35:32;;;;;;;12.88;9.00;;;;;;;8.28;73.41;96313.59;5027471;28;20034;-79
2022/01/02 06:37:57;;;;;;;12.65;8.63;;;;;;;8.30;74.23;96318.81;5010134;28;20021;-78
2022/01/02 06:40:23;;;;;;;12.20;9.02;;;;;;;8.31;73.53;96322.28;5011549;28;20546;-78
2022/01/02 06:42:48;;;;;;;13.88;9.25;;;;;;;8.36;73.08;96325.41;5028728;28;20028;-76
2022/01/02 06:45:14;;;;;;;11.55;8.52;;;;;;;8.35;73.52;96323.72;5030365;28;20029;-77
2022/01/02 06:47:39;;;;;;;10.88;8.75;;;;;;;8.43;72.90;96323.84;5028553;28;20025;-78
2022/01/02 06:50:06;;;;;;;14.25;9.10;;;;;;;8.46;72.75;96331.59;5010194;28;20479;-77
2022/01/02 06:52:31;;;;;;;11.70;8.20;;;;;;;8.52;72.82;96327.50;5027155;28;20476;-78
2022/01/02 06:54:56;;;;;;;11.57;8.98;;;;;;;8.51;72.67;96323.16;5027136;28;20030;-77
2022/01/02 06:57:22;;;;;;;11.50;9.10;;;;;;;8.47;72.75;96327.94;5008991;28;20021;-77
2022/01/02 06:59:48;;;;;;;10.68;8.43;;;;;;;8.50;73.28;96327.66;5026073;28;20036;-78
2022/01/02 07:02:14;;;;;;;15.43;9.20;;;;;;;8.56;73.04;96338.78;4992737;28;20030;-77
2022/01/02 07:04:39;;;;;;;12.30;8.57;;;;;;;8.57;72.79;96338.66;5008622;28;20436;-77
2022/01/02 07:07:05;;;;;;;12.95;9.07;;;;;;;8.55;72.92;96339.75;5026598;28;20029;-78
2022/01/02 07:09:31;;;;;;;12.55;9.50;;;;;;;8.57;72.56;96343.16;5026226;28;20029;-77
2022/01/02 07:11:57;;;;;;;12.32;9.90;;;;;;;8.75;72.10;96338.75;5008737;28;20029;-76
2022/01/02 07:14:26;;;;;;;12.45;8.93;;;;;;;9.00;71.19;96338.28;5008416;28;20053;-77
2022/01/02 07:16:52;;;;;;;12.63;9.40;;;;;;;8.86;72.08;96342.28;5026063;28;20466;-77
2022/01/02 07:19:18;;;;;;;12.68;9.13;;;;;;;9.00;71.55;96344.50;4992367;28;20026;-76
2022/01/02 07:21:43;;;;;;;12.07;8.88;;;;;;;9.19;71.06;96345.41;5027562;28;20416;-77
2022/01/02 07:24:08;;;;;;;12.75;9.13;;;;;;;9.36;70.08;96351.84;5030205;28;20519;-76
2022/01/02 07:26:34;;;;;;;10.88;8.98;;;;;;;9.39;70.01;96350.72;5012176;28;20033;-78
2022/01/02 07:28:59;;;;;;;15.70;8.63;;;;;;;9.56;69.53;96348.25;5029941;28;20032;-78
2022/01/02 07:31:25;;;;;;;12.68;8.68;;;;;;;9.57;69.90;96345.44;5029869;28;20394;-76
2022/01/02 07:33:50;;;;;;;12.38;8.70;;;;;;;9.71;69.05;96348.59;5029986;28;20021;-76
2022/01/02 07:36:15;;;;;;;12.20;9.50;;;;;;;9.83;68.78;96350.09;5012154;28;20091;-78
2022/01/02 07:38:41;;;;;;;11.75;8.68;;;;;;;9.85;68.88;96353.44;5030041;28;20076;-77
2022/01/02 07:41:06;;;;;;;11.85;9.02;;;;;;;10.00;68.52;96351.13;5029674;28;20033;-77
2022/01/02 07:43:32;;;;;;;9.52;7.95;;;;;;;10.20;67.84;96358.19;5030021;28;20083;-77
2022/01/02 07:45:57;;;;;;;8.65;7.22;;;;;;;10.23;67.04;96352.50;5029728;28;20021;-77
2022/01/02 07:48:23;;;;;;;11.00;7.63;;;;;;;10.32;66.58;96358.78;5029309;28;20025;-76
2022/01/02 07:50:48;;;;;;;10.65;7.47;;;;;;;10.46;66.22;96352.91;5030103;28;20484;-77
2022/01/02 07:53:13;;;;;;;12.10;7.80;;;;;;;10.55;65.74;96348.50;5029648;28;20033;-78
2022/01/02 07:55:39;;;;;;;9.27;7.38;;;;;;;10.57;66.03;96345.66;5029951;28;20070;-77
2022/01/02 07:58:04;;;;;;;8.50;7.30;;;;;;;10.70;65.68;96339.88;5029464;28;20083;-77
2022/01/02 08:00:30;;;;;;;8.13;6.75;;;;;;;10.84;64.81;96343.84;5029605;28;20029;-76
2022/01/02 08:02:55;;;;;;;9.73;8.55;;;;;;;10.85;64.97;96342.88;5029508;28;20029;-76
2022/01/02 08:05:21;;;;;;;9.65;7.30;;;;;;;11.04;64.68;96340.97;5028986;28;20435;-77
2022/01/02 08:07:46;;;;;;;9.02;7.43;;;;;;;11.21;64.14;96337.41;5029804;28;20685;-77
2022/01/02 08:10:12;;;;;;;8.77;6.97;;;;;;;11.32;64.04;96340.78;5028721;28;20463;-77
2022/01/02 08:12:37;;;;;;;9.25;7.63;;;;;;;11.42;63.89;96343.38;4995373;28;20032;-79
2022/01/02 08:15:03;;;;;;;10.75;7.22;;;;;;;11.50;63.22;96336.22;5029109;28;20029;-77
2022/01/02 08:17:28;;;;;;;8.38;7.00;;;;;;;11.53;62.86;96339.56;5011670;28;20029;-76
2022/01/02 08:19:54;;;;;;;9.52;6.50;;;;;;;11.61;62.75;96336.91;5012773;28;20115;-78
2022/01/02 08:22:20;;;;;;;8.50;6.85;;;;;;;11.61;62.21;96340.44;5011065;28;20044;-76
2022/01/02 08:24:45;;;;;;;8.60;6.40;;;;;;;11.40;62.52;96335.47;5029571;28;20026;-76
2022/01/02 08:27:11;;;;;;;8.90;6.85;;;;;;;11.57;62.02;96335.56;5028645;28;20032;-78
2022/01/02 08:29:36;;;;;;;8.80;6.68;;;;;;;11.60;62.01;96335.25;5029273;28;20507;-78
2022/01/02 08:32:01;;;;;;;9.20;6.07;;;;;;;11.72;62.09;96336.63;5028697;28;20045;-77
2022/01/02 08:34:27;;;;;;;8.05;6.28;;;;;;;11.77;61.12;96330.75;5027866;28;20413;-80
2022/01/02 08:36:52;;;;;;;8.70;6.75;;;;;;;11.75;61.36;96340.84;5028721;28;20076;-76
2022/01/02 08:39:18;;;;;;;9.70;6.50;;;;;;;11.86;60.67;96337.03;5028804;28;20340;-77
2022/01/02 08:41:43;;;;;;;7.38;6.03;;;;;;;11.92;60.28;96344.44;5010993;28;20037;-78
2022/01/02 08:44:09;;;;;;;8.45;6.07;;;;;;;11.96;59.88;96353.03;5028219;28;20026;-76
2022/01/02 08:46:34;;;;;;;7.50;5.75;;;;;;;12.02;59.95;96346.13;5028734;28;20071;-79
2022/01/02 08:48:59;;;;;;;7.07;5.88;;;;;;;12.02;59.55;96348.81;5010386;28;20485;-78
2022/01/02 08:51:27;;;;;;;10.52;6.07;;;;;;;12.08;59.14;96345.50;5028427;28;20484;-77
2022/01/02 08:53:53;;;;;;;8.13;5.72;;;;;;;12.09;59.39;96347.22;5028521;28;20135;-78
2022/01/02 08:56:18;;;;;;;7.47;5.78;;;;;;;12.11;59.26;96340.66;5028059;28;20515;-77
2022/01/02 08:58:44;;;;;;;6.63;5.57;;;;;;;12.01;59.89;96344.47;5028480;28;20029;-76
2022/01/02 09:01:09;;;;;;;8.80;6.05;;;;;;;11.71;60.00;96351.06;5010953;28;20363;-77
2022/01/02 09:03:34;;;;;;;8.82;6.22;;;;;;;11.97;59.75;96350.16;5028051;28;20022;-77
2022/01/02 09:06:00;;;;;;;6.53;5.20;;;;;;;12.08;59.72;96343.66;5027950;28;20033;-78
2022/01/02 09:08:25;;;;;;;6.97;5.32;;;;;;;12.03;59.63;96337.91;5010569;28;20021;-77
2022/01/02 09:10:51;;;;;;;6.35;5.40;;;;;;;11.71;60.27;96331.41;5010084;28;20050;-77
2022/01/02 09:13:16;;;;;;;8.65;5.78;;;;;;;11.67;60.60;96330.06;5011855;28;20026;-76
2022/01/02 09:15:42;;;;;;;8.45;5.60;;;;;;;11.77;60.58;96336.13;5010163;28;20025;-76
2022/01/02 09:18:07;;;;;;;7.82;5.43;;;;;;;12.01;59.88;96331.03;5028050;28;20440;-79
2022/01/02 09:20:33;;;;;;;8.20;5.18;;;;;;;12.01;58.27;96336.41;5027873;28;20686;-77
2022/01/02 09:22:58;;;;;;;5.75;5.10;;;;;;;11.92;58.54;96333.69;5009809;28;20500;-77
2022/01/02 09:25:24;;;;;;;7.97;5.57;;;;;;;11.60;59.39;96324.50;4993851;28;20523;-77
2022/01/02 09:27:49;;;;;;;7.88;5.20;;;;;;;11.58;59.66;96323.81;5027663;28;20084;-78
2022/01/02 09:30:15;;;;;;;7.00;5.40;;;;;;;11.56;59.46;96325.84;5027835;28;20075;-76
2022/01/02 09:32:40;;;;;;;7.13;5.35;;;;;;;11.66;59.48;96323.84;5027320;28;20034;-77
2022/01/02 09:35:07;;;;;;;6.88;5.25;;;;;;;11.66;59.50;96323.84;5009901;28;20493;-76
2022/01/02 09:37:34;;;;;;;7.45;4.95;;;;;;;11.48;59.71;96310.50;5009956;28;20124;-77
2022/01/02 09:39:59;;;;;;;6.15;5.00;;;;;;;11.43;59.87;96307.47;5027682;28;20048;-78
2022/01/02 09:42:25;;;;;;;6.65;5.13;;;;;;;11.60;59.66;96303.00;5027435;28;20472;-78
2022/01/02 09:44:50;;;;;;;6.13;4.68;;;;;;;11.62;59.83;96301.00;5009700;28;20037;-77
2022/01/02 09:47:19;;;;;;;9.00;5.25;;;;;;;11.54;59.91;96298.28;5027666;28;20056;-77
2022/01/02 09:49:44;;;;;;;6.50;4.90;;;;;;;11.41;59.84;96298.72;5009124;28;20076;-78
2022/01/02 09:52:10;;;;;;;6.45;4.70;;;;;;;11.64;59.21;96295.47;4993171;28;20026;-77
2022/01/02 09:54:35;;;;;;;7.22;5.25;;;;;;;11.71;58.91;96304.53;5027222;28;20025;-77
2022/01/02 09:57:01;;;;;;;6.05;4.47;;;;;;;11.59;59.25;96290.56;5029649;28;20029;-77
2022/01/02 09:59:27;;;;;;;6.40;4.45;;;;;;;11.69;58.35;96291.25;5027992;28;20037;-78
2022/01/02 10:01:52;;;;;;;7.40;4.82;;;;;;;11.74;58.38;96278.19;5026929;28;20515;-78
2022/01/02 10:04:37;;;;;;;5.75;4.03;;;;;;;11.66;58.44;96278.16;5009514;28;20488;-77
2022/01/02 10:07:04;;;;;;;5.13;4.05;;;;;;;11.72;57.91;96279.38;4993503;28;20060;-78
2022/01/02 10:09:30;;;;;;;6.28;3.95;;;;;;;11.65;57.93;96281.88;5009545;28;20022;-77
2022/01/02 10:12:26;;;;;;;5.38;4.18;;;;;;;11.52;58.64;96263.50;5026958;28;20084;-78
2022/01/02 10:15:09;;;;;;;6.70;5.78;;;;;;;11.56;58.56;96280.97;5011494;28;20423;-76
2022/01/02 10:18:00;;;;;;;4.90;3.90;;;;;;;11.56;58.03;96269.41;5027203;28;20033;-77
2022/01/02 10:20:28;;;;;;;5.70;3.97;;;;;;;11.53;58.40;96261.66;5026867;28;20108;-79
2022/01/02 10:23:11;;;;;;;4.80;4.05;;;;;;;11.59;58.77;96264.53;4992989;28;20025;-78
2022/01/02 10:25:43;;;;;;;4.68;3.60;;;;;;;11.44;58.09;96252.72;5026646;28;20488;-76
2022/01/02 10:28:27;;;;;;;6.15;4.05;;;;;;;11.41;58.65;96245.84;5026598;28;20025;-77
2022/01/02 10:30:59;;;;;;;4.82;3.83;;;;;;;11.44;58.26;96247.38;5026806;28;20082;-78
2022/01/02 10:33:25;;;;;;;5.05;3.70;;;;;;;11.44;58.38;96250.03;5009089;28;20099;-77
2022/01/02 10:36:01;;;;;;;5.72;3.67;;;;;;;11.47;58.29;96250.56;5026469;28;20034;-78
2022/01/02 10:38:27;;;;;;;5.47;3.88;;;;;;;11.44;58.34;96250.03;5027645;28;20508;-76
2022/01/02 10:40:52;;;;;;;5.57;3.55;;;;;;;11.47;57.59;96239.81;5011593;28;20018;-80
2022/01/02 10:43:25;;;;;;;5.18;3.70;;;;;;;11.44;57.41;96245.53;4995490;28;20025;-79
2022/01/02 10:45:51;;;;;;;4.28;3.50;;;;;;;11.48;57.45;96233.44;5011310;28;20068;-79
2022/01/02 10:48:28;;;;;;;6.65;3.85;;;;;;;11.51;57.17;96232.25;4993117;28;20060;-78
2022/01/02 10:51:05;;;;;;;4.60;3.60;;;;;;;11.50;56.97;96223.38;4980138;28;20025;-78
2022/01/02 10:53:31;;;;;;;4.53;3.58;;;;;;;11.59;57.23;96231.47;5010978;28;20021;-77
2022/01/02 10:55:56;;;;;;;4.72;3.50;;;;;;;11.64;56.90;96229.09;5010691;28;20083;-79
2022/01/02 10:58:22;;;;;;;4.20;3.15;;;;;;;11.68;56.43;96214.34;5009715;28;20481;-78
2022/01/02 11:00:50;;;;;;;4.45;3.53;;;;;;;11.75;56.79;96212.69;5008351;28;20021;-78
2022/01/02 11:03:16;;;;;;;4.80;3.70;;;;;;;11.72;56.13;96213.00;4991425;28;20033;-78
2022/01/02 11:05:42;;;;;;;4.72;3.38;;;;;;;11.74;56.90;96207.47;4992169;28;20030;-76
2022/01/02 11:08:07;;;;;;;3.85;3.00;;;;;;;11.77;56.08;96209.00;4975815;28;20115;-79
2022/01/02 11:10:36;;;;;;;4.07;3.08;;;;;;;11.82;56.32;96203.94;5026418;28;20076;-77
2022/01/02 11:13:04;;;;;;;5.80;3.45;;;;;;;11.89;56.90;96204.97;5008642;28;20026;-77
2022/01/02 11:15:30;;;;;;;4.18;3.40;;;;;;;11.98;57.18;96201.28;5008900;28;20021;-77
2022/01/02 11:17:56;;;;;;;4.75;3.80;;;;;;;11.96;57.04;96197.09;4992123;28;20483;-77
2022/01/02 11:20:28;;;;;;;4.53;3.17;;;;;;;12.02;56.68;96199.13;4991694;28;20029;-77
2022/01/02 11:23:25;;;;;;;6.18;3.58;;;;;;;12.11;56.02;96191.91;5026006;28;20026;-77
2022/01/02 11:26:02;;;;;;;4.15;3.00;;;;;;;12.17;55.96;96195.78;5008170;28;20247;-76
2022/01/02 11:28:40;;;;;;;4.72;3.53;;;;;;;12.22;55.49;96183.50;5008540;28;20040;-78
2022/01/02 11:31:09;;;;;;;5.10;3.70;;;;;;;12.31;55.63;96184.34;5008407;28;20033;-78
2022/01/02 11:33:37;;;;;;;4.70;3.60;;;;;;;12.29;56.10;96180.13;5008211;28;20032;-77